createdAt,value
2022-11-13T00:00:59.618Z,102792.28
2022-11-13T00:04:02.511Z,102786.56
2022-11-13T00:07:06.636Z,102777.53
2022-11-13T00:10:10.372Z,102771.69
2022-11-13T00:13:13.061Z,102777.53
2022-11-13T00:16:18.245Z,102783.56
2022-11-13T00:19:21.608Z,102777.66
2022-11-13T00:22:25.884Z,102773.22
2022-11-13T00:25:28.556Z,102771.44
2022-11-13T00:28:31.457Z,102769.09
2022-11-13T00:31:34.166Z,102765.25
2022-11-13T00:34:52.301Z,102763.34
2022-11-13T00:37:57.063Z,102764.09
2022-11-13T00:41:00.503Z,102773.44
2022-11-13T00:44:04.038Z,102773.72
2022-11-13T00:47:07.425Z,102768.81
2022-11-13T00:50:11.033Z,102759.84
2022-11-13T00:53:18.103Z,102764.59
2022-11-13T00:56:21.269Z,102751.66
2022-11-13T00:59:23.954Z,102751.00
2022-11-13T01:02:26.824Z,102751.97
2022-11-13T01:05:29.634Z,102749.59
2022-11-13T01:08:33.889Z,102744.34
2022-11-13T01:11:36.609Z,102740.75
2022-11-13T01:14:39.461Z,102741.31
2022-11-13T01:17:42.382Z,102736.03
2022-11-13T01:20:45.245Z,102739.41
2022-11-13T01:23:49.443Z,102731.03
2022-11-13T01:26:52.284Z,102719.06
2022-11-13T01:29:54.987Z,102718.69
2022-11-13T01:32:57.692Z,102722.81
2022-11-13T01:36:05.685Z,102724.72
2022-11-13T01:39:11.043Z,102714.91
2022-11-13T01:42:13.810Z,102719.25
2022-11-13T01:45:53.895Z,102709.72
2022-11-13T01:49:03.747Z,102716.47
2022-11-13T01:52:11.241Z,102706.34
2022-11-13T01:55:20.330Z,102708.38
2022-11-13T01:58:23.240Z,102713.00
2022-11-13T02:01:26.064Z,102708.56
2022-11-13T02:04:30.085Z,102701.66
2022-11-13T02:07:32.842Z,102699.47
2022-11-13T02:10:38.790Z,102699.06
2022-11-13T02:13:41.660Z,102696.97
2022-11-13T02:16:48.256Z,102689.81
2022-11-13T02:19:55.144Z,102687.38
2022-11-13T02:23:04.136Z,102697.72
2022-11-13T02:26:10.161Z,102687.28
2022-11-13T02:29:13.081Z,102686.88
2022-11-13T02:32:15.881Z,102691.78
2022-11-13T02:35:23.682Z,102679.63
2022-11-13T02:38:26.810Z,102675.44
2022-11-13T02:41:33.787Z,102680.59
2022-11-13T02:44:36.628Z,102672.56
2022-11-13T02:47:39.472Z,102675.75
2022-11-13T02:50:42.212Z,102666.78
2022-11-13T02:53:45.093Z,102659.97
2022-11-13T02:56:49.154Z,102653.94
2022-11-13T02:59:52.423Z,102643.44
2022-11-13T03:02:55.841Z,102648.38
2022-11-13T03:05:58.692Z,102649.13
2022-11-13T03:09:01.473Z,102649.38
2022-11-13T03:12:06.246Z,102634.84
2022-11-13T03:15:10.230Z,102644.59
2022-11-13T03:18:13.543Z,102650.13
2022-11-13T03:21:17.073Z,102646.13
2022-11-13T03:24:20.040Z,102645.09
2022-11-13T03:27:24.246Z,102635.81
2022-11-13T03:30:28.645Z,102646.13
2022-11-13T03:33:31.552Z,102648.03
2022-11-13T03:36:34.448Z,102648.50
2022-11-13T03:39:37.133Z,102659.84
2022-11-13T03:42:41.390Z,102657.09
2022-11-13T03:45:46.109Z,102658.41
2022-11-13T03:48:49.216Z,102657.59
2022-11-13T03:51:52.018Z,102668.34
2022-11-13T03:54:54.745Z,102663.66
2022-11-13T03:57:59.002Z,102654.81
2022-11-13T04:01:01.656Z,102644.53
2022-11-13T04:04:04.716Z,102641.16
2022-11-13T04:07:07.697Z,102636.94
2022-11-13T04:10:11.003Z,102634.66
2022-11-13T04:13:15.083Z,102634.03
2022-11-13T04:16:17.905Z,102627.06
2022-11-13T04:19:20.557Z,102628.16
2022-11-13T04:22:23.481Z,102613.19
2022-11-13T04:25:26.992Z,102610.00
2022-11-13T04:28:31.473Z,102613.81
2022-11-13T04:31:34.513Z,102614.22
2022-11-13T04:34:37.399Z,102614.69
2022-11-13T04:37:40.137Z,102609.00
2022-11-13T04:40:43.623Z,102618.03
2022-11-13T04:43:46.732Z,102613.59
2022-11-13T04:46:49.505Z,102617.63
2022-11-13T04:49:52.165Z,102619.31
2022-11-13T04:52:55.011Z,102617.00
2022-11-13T04:55:57.682Z,102612.81
2022-11-13T04:59:01.885Z,102613.66
2022-11-13T05:02:05.239Z,102612.56
2022-11-13T05:05:08.808Z,102619.34
2022-11-13T05:08:12.721Z,102615.75
2022-11-13T05:11:15.646Z,102605.59
2022-11-13T05:14:19.677Z,102615.94
2022-11-13T05:17:23.343Z,102613.00
2022-11-13T05:20:26.158Z,102615.09
2022-11-13T05:23:29.341Z,102616.59
2022-11-13T05:26:32.859Z,102601.16
2022-11-13T05:29:37.172Z,102607.50
2022-11-13T05:32:39.931Z,102612.78
2022-11-13T05:35:42.786Z,102610.47
2022-11-13T05:38:46.351Z,102614.25
2022-11-13T05:41:49.200Z,102604.13
2022-11-13T05:44:53.296Z,102606.03
2022-11-13T05:47:56.175Z,102606.47
2022-11-13T05:51:03.047Z,102610.88
2022-11-13T05:54:06.197Z,102598.00
2022-11-13T05:57:08.929Z,102596.31
2022-11-13T06:00:14.525Z,102595.03
2022-11-13T06:03:17.173Z,102596.97
2022-11-13T06:06:21.718Z,102601.22
2022-11-13T06:09:24.423Z,102589.78
2022-11-13T06:12:27.280Z,102581.13
2022-11-13T06:15:31.386Z,102583.47
2022-11-13T06:18:35.218Z,102582.84
2022-11-13T06:21:40.376Z,102576.72
2022-11-13T06:24:43.286Z,102581.34
2022-11-13T06:27:46.022Z,102578.81
2022-11-13T06:30:50.206Z,102571.44
2022-11-13T06:33:53.613Z,102581.16
2022-11-13T06:36:56.464Z,102565.34
2022-11-13T06:39:59.181Z,102564.28
2022-11-13T06:43:02.041Z,102565.31
2022-11-13T06:46:07.597Z,102561.53
2022-11-13T06:49:10.429Z,102557.72
2022-11-13T06:52:13.263Z,102553.31
2022-11-13T06:55:16.108Z,102558.38
2022-11-13T06:58:18.822Z,102557.50
2022-11-13T07:01:24.733Z,102558.56
2022-11-13T07:04:27.507Z,102557.50
2022-11-13T07:07:30.243Z,102553.53
2022-11-13T07:10:33.112Z,102544.03
2022-11-13T07:13:35.942Z,102557.09
2022-11-13T07:17:07.322Z,102545.28
2022-11-13T07:20:03.052Z,102551.59
2022-11-13T07:23:06.338Z,102546.13
2022-11-13T07:26:09.248Z,102540.66
2022-11-13T07:29:12.849Z,102540.00
2022-11-13T07:32:16.986Z,102546.34
2022-11-13T07:35:20.081Z,102530.28
2022-11-13T07:38:22.845Z,102546.75
2022-11-13T07:41:26.881Z,102549.09
2022-11-13T07:44:52.984Z,102546.75
2022-11-13T07:47:53.894Z,102541.47
2022-11-13T07:51:00.290Z,102537.66
2022-11-13T07:54:03.191Z,102538.09
2022-11-13T07:57:05.905Z,102539.31
2022-11-13T08:00:10.200Z,102544.41
2022-11-13T08:03:15.525Z,102546.09
2022-11-13T08:06:18.591Z,102543.34
2022-11-13T08:09:21.524Z,102534.53
2022-11-13T08:12:24.262Z,102543.56
2022-11-13T08:15:27.024Z,102538.53
2022-11-13T08:18:31.997Z,102536.19
2022-11-13T08:21:36.722Z,102533.47
2022-11-13T08:24:39.436Z,102530.03
2022-11-13T08:27:42.146Z,102533.19
2022-11-13T08:30:45.559Z,102538.88
2022-11-13T08:33:49.701Z,102536.81
2022-11-13T08:36:52.666Z,102524.78
2022-11-13T08:39:55.339Z,102526.66
2022-11-13T08:43:00.297Z,102529.63
2022-11-13T08:46:04.118Z,102534.47
2022-11-13T08:49:08.505Z,102520.34
2022-11-13T08:52:11.329Z,102526.06
2022-11-13T08:55:14.027Z,102527.94
2022-11-13T08:58:16.934Z,102529.44
2022-11-13T09:01:22.767Z,102531.28
2022-11-13T09:04:26.910Z,102524.78
2022-11-13T09:07:29.756Z,102523.28
2022-11-13T09:10:32.694Z,102520.31
2022-11-13T09:13:41.166Z,102537.63
2022-11-13T09:16:46.792Z,102526.00
2022-11-13T09:19:51.031Z,102530.88
2022-11-13T09:23:00.847Z,102531.94
2022-11-13T09:26:04.128Z,102519.19
2022-11-13T09:29:06.878Z,102515.41
2022-11-13T09:32:09.761Z,102510.13
2022-11-13T09:35:13.845Z,102519.44
2022-11-13T09:38:17.608Z,102512.44
2022-11-13T09:41:24.813Z,102513.28
2022-11-13T09:44:34.506Z,102521.75
2022-11-13T09:47:43.247Z,102519.44
2022-11-13T09:50:47.421Z,102517.31
2022-11-13T09:53:50.307Z,102510.53
2022-11-13T09:57:01.163Z,102511.16
2022-11-13T10:00:08.092Z,102506.09
2022-11-13T10:04:00.574Z,102516.44
2022-11-13T10:07:09.430Z,102503.47
2022-11-13T10:10:32.912Z,102493.63
2022-11-13T10:13:42.787Z,102491.50
2022-11-13T10:16:50.565Z,102488.34
2022-11-13T10:19:57.742Z,102483.28
2022-11-13T10:23:10.113Z,102478.59
2022-11-13T10:26:17.384Z,102479.66
2022-11-13T10:29:21.447Z,102480.06
2022-11-13T10:32:27.014Z,102473.50
2022-11-13T10:35:45.641Z,102471.53
2022-11-13T10:38:57.564Z,102474.25
2022-11-13T10:42:00.245Z,102467.34
2022-11-13T10:45:05.887Z,102456.09
2022-11-13T10:48:21.340Z,102452.41
2022-11-13T10:51:27.490Z,102445.94
2022-11-13T10:54:33.683Z,102447.00
2022-11-13T10:57:36.388Z,102450.69
2022-11-13T11:00:41.431Z,102445.31
2022-11-13T11:03:50.881Z,102440.44
2022-11-13T11:10:26.164Z,102439.63
2022-11-13T11:13:29.413Z,102428.81
2022-11-13T11:16:32.653Z,102435.03
2022-11-13T11:19:40.134Z,102426.22
2022-11-13T11:22:44.820Z,102425.84
2022-11-13T11:25:55.730Z,102425.22
2022-11-13T11:29:07.164Z,102426.41
2022-11-13T11:32:17.834Z,102426.00
2022-11-13T11:35:23.399Z,102412.25
2022-11-13T11:38:32.011Z,102415.34
2022-11-13T11:41:44.304Z,102417.59
2022-11-13T11:45:02.917Z,102407.56
2022-11-13T11:48:12.527Z,102408.56
2022-11-13T11:51:26.275Z,102410.75
2022-11-13T11:54:41.711Z,102413.28
2022-11-13T11:57:55.309Z,102412.03
2022-11-13T12:01:05.968Z,102407.56
2022-11-13T12:04:20.443Z,102403.63
2022-11-13T12:07:37.786Z,102397.94
2022-11-13T12:10:47.733Z,102396.59
2022-11-13T12:14:03.552Z,102387.88
2022-11-13T12:17:27.946Z,102383.09
2022-11-13T12:20:38.333Z,102378.28
2022-11-13T12:23:53.640Z,102377.25
2022-11-13T12:27:10.854Z,102363.59
2022-11-13T12:30:19.592Z,102362.97
2022-11-13T12:33:28.797Z,102362.00
2022-11-13T12:36:33.058Z,102360.34
2022-11-13T12:39:43.068Z,102347.56
2022-11-13T12:42:50.740Z,102343.97
2022-11-13T12:45:56.604Z,102333.84
2022-11-13T12:49:00.872Z,102329.88
2022-11-13T12:52:05.055Z,102333.47
2022-11-13T12:55:10.127Z,102327.00
2022-11-13T12:58:21.683Z,102329.34
2022-11-13T13:01:28.368Z,102327.97
2022-11-13T13:04:44.558Z,102318.66
2022-11-13T13:08:22.741Z,102321.03
2022-11-13T13:11:37.505Z,102314.59
2022-11-13T13:15:06.365Z,102304.25
2022-11-13T13:18:14.218Z,102308.69
2022-11-13T13:21:18.713Z,102303.09
2022-11-13T13:24:31.101Z,102292.50
2022-11-13T13:27:38.836Z,102292.31
2022-11-13T13:30:53.690Z,102289.63
2022-11-13T13:34:18.817Z,102297.09
2022-11-13T13:37:33.625Z,102303.72
2022-11-13T13:40:42.405Z,102303.03
2022-11-13T13:43:58.917Z,102296.19
2022-11-13T13:47:01.955Z,102298.91
2022-11-13T13:50:08.897Z,102292.13
2022-11-13T13:53:15.701Z,102281.75
2022-11-13T13:56:20.869Z,102274.94
2022-11-13T13:59:30.199Z,102261.97
2022-11-13T14:02:33.067Z,102266.69
2022-11-13T14:05:38.071Z,102272.69
2022-11-13T14:08:40.777Z,102266.22
2022-11-13T14:11:43.631Z,102279.22
2022-11-13T14:14:46.634Z,102276.25
2022-11-13T14:17:49.587Z,102282.47
2022-11-13T14:20:56.402Z,102274.75
2022-11-13T14:24:01.570Z,102266.19
2022-11-13T14:27:07.963Z,102275.19
2022-11-13T14:30:23.961Z,102269.88
2022-11-13T14:33:31.804Z,102273.69
2022-11-13T14:36:37.169Z,102268.69
2022-11-13T14:39:40.113Z,102274.00
2022-11-13T14:42:47.797Z,102262.28
2022-11-13T14:45:59.006Z,102260.00
2022-11-13T14:49:01.799Z,102254.19
2022-11-13T14:52:07.218Z,102252.50
2022-11-13T14:55:23.469Z,102253.06
2022-11-13T14:58:31.233Z,102257.94
2022-11-13T15:01:34.111Z,102256.81
2022-11-13T15:04:40.298Z,102255.84
2022-11-13T15:07:46.930Z,102244.75
2022-11-13T15:10:49.966Z,102250.22
2022-11-13T15:13:52.872Z,102248.91
2022-11-13T15:16:55.616Z,102252.34
2022-11-13T15:19:58.728Z,102254.25
2022-11-13T15:23:02.858Z,102241.59
2022-11-13T15:26:05.690Z,102236.22
2022-11-13T15:29:08.849Z,102235.50
2022-11-13T15:32:13.087Z,102228.53
2022-11-13T15:35:17.524Z,102238.94
2022-11-13T15:38:21.586Z,102225.22
2022-11-13T15:41:25.660Z,102232.91
2022-11-13T15:44:28.389Z,102234.81
2022-11-13T15:47:33.505Z,102229.09
2022-11-13T15:50:36.529Z,102230.00
2022-11-13T15:53:40.662Z,102233.41
2022-11-13T15:56:44.974Z,102231.28
2022-11-13T15:59:47.644Z,102231.50
2022-11-13T16:02:52.126Z,102227.47
2022-11-13T16:05:54.830Z,102227.69
2022-11-13T16:08:59.011Z,102227.28
2022-11-13T16:12:01.796Z,102227.72
2022-11-13T16:15:04.949Z,102235.34
2022-11-13T16:18:17.231Z,102232.38
2022-11-13T16:21:21.609Z,102226.25
2022-11-13T16:24:25.714Z,102227.28
2022-11-13T16:27:30.562Z,102228.13
2022-11-13T16:30:33.355Z,102226.06
2022-11-13T16:33:36.024Z,102213.66
2022-11-13T16:36:38.982Z,102217.84
2022-11-13T16:39:43.511Z,102213.84
2022-11-13T16:42:46.436Z,102216.16
2022-11-13T16:45:49.145Z,102218.28
2022-11-13T16:48:52.071Z,102212.41
2022-11-13T16:51:54.783Z,102211.34
2022-11-13T16:55:02.316Z,102220.19
2022-11-13T16:58:14.640Z,102223.56
2022-11-13T17:01:19.199Z,102215.56
2022-11-13T17:04:22.780Z,102214.28
2022-11-13T17:07:25.648Z,102213.47
2022-11-13T17:10:31.845Z,102204.22
2022-11-13T17:13:35.380Z,102209.91
2022-11-13T17:16:38.928Z,102201.69
2022-11-13T17:19:44.150Z,102202.53
2022-11-13T17:22:49.105Z,102204.41
2022-11-13T17:25:53.315Z,102201.47
2022-11-13T17:28:56.174Z,102200.00
2022-11-13T17:31:59.005Z,102195.78
2022-11-13T17:35:01.688Z,102200.22
2022-11-13T17:38:04.522Z,102201.69
2022-11-13T17:41:14.320Z,102203.78
2022-11-13T17:44:17.139Z,102205.66
2022-11-13T17:47:19.825Z,102195.56
2022-11-13T17:50:22.643Z,102198.09
2022-11-13T17:53:25.587Z,102193.66
2022-11-13T17:56:29.716Z,102188.00
2022-11-13T17:59:32.613Z,102191.53
2022-11-13T18:02:35.267Z,102202.31
2022-11-13T18:05:40.800Z,102193.25
2022-11-13T18:08:44.899Z,102191.53
2022-11-13T18:11:49.072Z,102183.78
2022-11-13T18:14:53.219Z,102194.94
2022-11-13T18:17:56.389Z,102191.34
2022-11-13T18:20:59.386Z,102197.66
2022-11-13T18:24:04.422Z,102193.22
2022-11-13T18:27:08.890Z,102192.53
2022-11-13T18:30:12.470Z,102188.63
2022-11-13T18:33:15.195Z,102183.34
2022-11-13T18:36:18.516Z,102176.16
2022-11-13T18:39:21.253Z,102179.75
2022-11-13T18:42:25.603Z,102181.84
2022-11-13T18:45:28.267Z,102185.41
2022-11-13T18:48:31.802Z,102176.34
2022-11-13T18:51:35.577Z,102180.16
2022-11-13T18:54:38.347Z,102185.41
2022-11-13T18:57:42.364Z,102186.94
2022-11-13T19:00:45.045Z,102183.91
2022-11-13T19:04:08.233Z,102178.44
2022-11-13T19:07:12.138Z,102180.28
2022-11-13T19:10:16.530Z,102178.81
2022-11-13T19:13:20.618Z,102176.28
2022-11-13T19:16:26.026Z,102170.56
2022-11-13T19:19:28.699Z,102168.28
2022-11-13T19:22:32.783Z,102175.06
2022-11-13T19:25:35.690Z,102177.09
2022-11-13T19:28:40.130Z,102181.91
2022-11-13T19:31:44.616Z,102194.84
2022-11-13T19:34:47.312Z,102192.56
2022-11-13T19:37:56.110Z,102184.69
2022-11-13T19:40:58.818Z,102183.72
2022-11-13T19:44:03.057Z,102186.34
2022-11-13T19:47:06.042Z,102181.00
2022-11-13T19:50:10.214Z,102185.19
2022-11-13T19:53:13.087Z,102162.78
2022-11-13T19:56:18.668Z,102165.56
2022-11-13T19:59:22.862Z,102175.22
2022-11-13T20:02:25.676Z,102167.81
2022-11-13T20:05:28.524Z,102158.06
2022-11-13T20:08:31.604Z,102156.47
2022-11-13T20:11:35.102Z,102157.03
2022-11-13T20:14:39.187Z,102155.63
2022-11-13T20:17:41.986Z,102153.38
2022-11-13T20:20:46.075Z,102161.44
2022-11-13T20:23:50.245Z,102160.97
2022-11-13T20:26:53.072Z,102147.88
2022-11-13T20:29:57.752Z,102151.72
2022-11-13T20:33:00.627Z,102145.00
2022-11-13T20:36:04.024Z,102143.47
2022-11-13T20:39:09.350Z,102144.28
2022-11-13T20:42:12.418Z,102144.16
2022-11-13T20:45:16.673Z,102145.13
2022-11-13T20:48:19.491Z,102142.97
2022-11-13T20:51:26.397Z,102143.88
2022-11-13T20:54:29.196Z,102143.19
2022-11-13T20:57:34.507Z,102144.56
2022-11-13T21:00:42.362Z,102135.91
2022-11-13T21:03:46.483Z,102131.53
2022-11-13T21:06:49.386Z,102131.47
2022-11-13T21:09:52.072Z,102130.91
2022-11-13T21:12:55.750Z,102130.06
2022-11-13T21:15:59.958Z,102127.84
2022-11-13T21:19:02.633Z,102126.59
2022-11-13T21:22:05.444Z,102135.56
2022-11-13T21:25:08.854Z,102131.16
2022-11-13T21:28:12.218Z,102141.22
2022-11-13T21:31:18.723Z,102141.00
2022-11-13T21:34:21.411Z,102138.13
2022-11-13T21:37:24.284Z,102131.78
2022-11-13T21:40:27.151Z,102130.19
2022-11-13T21:43:29.819Z,102126.66
2022-11-13T21:46:36.004Z,102129.94
2022-11-13T21:49:38.695Z,102125.41
2022-11-13T21:52:41.544Z,102117.50
2022-11-13T21:55:49.864Z,102121.56
2022-11-13T21:58:52.984Z,102109.72
2022-11-13T22:01:57.273Z,102116.72
2022-11-13T22:05:00.256Z,102120.44
2022-11-13T22:08:03.087Z,102113.00
2022-11-13T22:11:06.105Z,102091.72
2022-11-13T22:14:09.882Z,102099.50
2022-11-13T22:17:13.909Z,102094.09
2022-11-13T22:20:17.115Z,102091.47
2022-11-13T22:23:20.021Z,102089.00
2022-11-13T22:26:24.277Z,102086.06
2022-11-13T22:29:29.342Z,102093.63
2022-11-13T22:32:33.472Z,102088.69
2022-11-13T22:35:36.254Z,102076.41
2022-11-13T22:38:40.073Z,102079.59
2022-11-13T22:41:44.129Z,102073.50
2022-11-13T22:44:56.073Z,102068.41
2022-11-13T22:48:00.779Z,102064.00
2022-11-13T22:51:05.535Z,102065.34
2022-11-13T22:54:10.218Z,102052.25
2022-11-13T22:57:12.918Z,102055.41
2022-11-13T23:00:16.157Z,102047.22
2022-11-13T23:03:20.275Z,102045.31
2022-11-13T23:06:26.425Z,102043.47
2022-11-13T23:09:29.247Z,102032.28
2022-11-13T23:12:32.059Z,102032.94
2022-11-13T23:15:34.864Z,102037.56
2022-11-13T23:18:39.322Z,102040.75
2022-11-13T23:21:42.260Z,102030.44
2022-11-13T23:24:44.929Z,102038.44
2022-11-13T23:27:47.917Z,102040.06
2022-11-13T23:30:50.923Z,102040.03
2022-11-13T23:33:55.136Z,102022.63
2022-11-13T23:36:57.790Z,102035.09
2022-11-13T23:40:00.635Z,102028.56
2022-11-13T23:43:03.581Z,102028.13
2022-11-13T23:46:06.404Z,102027.50
2022-11-13T23:49:10.549Z,102022.03
2022-11-13T23:52:13.248Z,102028.84
2022-11-13T23:55:16.936Z,102022.22
2022-11-13T23:58:19.678Z,102026.47
